createdAt,value
2017-03-12T00:00:38.562Z,0
2017-03-12T00:01:38.585Z,0
2017-03-12T00:02:38.592Z,0
2017-03-12T00:03:38.597Z,0
2017-03-12T00:04:38.620Z,0
2017-03-12T00:05:38.634Z,0
2017-03-12T00:06:38.652Z,0
2017-03-12T00:07:38.659Z,0
2017-03-12T00:08:38.679Z,0
2017-03-12T00:09:38.884Z,0
2017-03-12T00:10:38.706Z,0
2017-03-12T00:11:38.722Z,0
2017-03-12T00:12:38.721Z,0
2017-03-12T00:13:38.740Z,0
2017-03-12T00:14:38.754Z,0
2017-03-12T00:15:38.770Z,0
2017-03-12T00:16:38.769Z,0
2017-03-12T00:17:38.789Z,0
2017-03-12T00:18:38.408Z,0
2017-03-12T00:19:39.055Z,0
2017-03-12T00:20:38.830Z,0
2017-03-12T00:21:38.446Z,0
2017-03-12T00:22:38.856Z,0
2017-03-12T00:23:38.884Z,0
2017-03-12T00:24:38.894Z,0
2017-03-12T00:25:38.921Z,0
2017-03-12T00:26:38.916Z,0
2017-03-12T00:27:38.934Z,0
2017-03-12T00:28:38.976Z,0
2017-03-12T00:29:38.954Z,0
2017-03-12T00:30:38.967Z,0
2017-03-12T00:31:38.972Z,0
2017-03-12T00:32:39.007Z,0
2017-03-12T00:33:39.015Z,0
2017-03-12T00:34:39.020Z,0
2017-03-12T00:35:39.025Z,0
2017-03-12T00:36:39.042Z,0
2017-03-12T00:37:39.065Z,0
2017-03-12T00:38:39.073Z,0
2017-03-12T00:39:39.088Z,0
2017-03-12T00:40:39.109Z,0
2017-03-12T00:41:39.108Z,0
2017-03-12T00:42:39.123Z,0
2017-03-12T00:43:39.177Z,0
2017-03-12T00:44:39.186Z,0
2017-03-12T00:45:39.196Z,0
2017-03-12T00:46:39.205Z,0
2017-03-12T00:47:39.318Z,0
2017-03-12T00:48:39.212Z,0
2017-03-12T00:49:39.219Z,0
2017-03-12T00:50:39.233Z,0
2017-03-12T00:51:39.256Z,0
2017-03-12T00:52:39.258Z,0
2017-03-12T00:53:38.878Z,0
2017-03-12T00:54:39.306Z,0
2017-03-12T00:55:39.402Z,0
2017-03-12T00:56:39.345Z,0
2017-03-12T00:57:39.331Z,0
2017-03-12T00:58:39.333Z,0
2017-03-12T00:59:38.995Z,0
2017-03-12T01:00:39.395Z,0
2017-03-12T01:01:39.406Z,0
2017-03-12T01:02:39.409Z,0
2017-03-12T01:03:39.483Z,0
2017-03-12T01:04:39.457Z,0
2017-03-12T01:05:39.439Z,0
2017-03-12T01:06:39.467Z,0
2017-03-12T01:07:39.472Z,0
2017-03-12T01:08:39.495Z,0
2017-03-12T01:09:39.495Z,0
2017-03-12T01:10:39.501Z,0
2017-03-12T01:11:39.514Z,0
2017-03-12T01:12:39.533Z,0
2017-03-12T01:13:39.562Z,0
2017-03-12T01:14:39.555Z,0
2017-03-12T01:15:39.587Z,0
2017-03-12T01:16:39.586Z,0
2017-03-12T01:17:39.592Z,0
2017-03-12T01:18:39.666Z,0
2017-03-12T01:19:39.241Z,0
2017-03-12T01:20:39.637Z,0
2017-03-12T01:21:39.653Z,0
2017-03-12T01:22:39.667Z,0
2017-03-12T01:23:39.700Z,0
2017-03-12T01:24:39.697Z,0
2017-03-12T01:25:39.699Z,0
2017-03-12T01:26:39.931Z,0
2017-03-12T01:27:39.730Z,0
2017-03-12T01:28:39.743Z,0
2017-03-12T01:29:39.770Z,0
2017-03-12T01:30:39.776Z,0
2017-03-12T01:31:39.795Z,0
2017-03-12T01:32:39.801Z,0
2017-03-12T01:33:39.809Z,0
2017-03-12T01:34:39.821Z,0
2017-03-12T01:35:39.843Z,0
2017-03-12T01:36:39.849Z,0
2017-03-12T01:37:39.485Z,0
2017-03-12T01:38:39.899Z,0
2017-03-12T01:39:39.908Z,0
2017-03-12T01:40:39.504Z,0
2017-03-12T01:41:39.925Z,0
2017-03-12T01:42:39.930Z,0
2017-03-12T01:43:39.959Z,0
2017-03-12T01:44:39.958Z,0
2017-03-12T01:45:39.967Z,0
2017-03-12T01:46:40.006Z,0
2017-03-12T01:47:39.991Z,0
2017-03-12T01:48:40.011Z,0
2017-03-12T01:49:39.627Z,0
2017-03-12T01:50:40.032Z,0
2017-03-12T01:51:40.067Z,0
2017-03-12T01:52:40.083Z,0
2017-03-12T01:53:40.091Z,0
2017-03-12T01:54:39.703Z,0
2017-03-12T01:55:40.117Z,0
2017-03-12T01:56:40.128Z,0
2017-03-12T01:57:40.132Z,0
2017-03-12T01:58:40.147Z,0
2017-03-12T01:59:40.156Z,0
2017-03-12T02:00:40.371Z,0
2017-03-12T02:01:40.185Z,0
2017-03-12T02:02:40.210Z,0
2017-03-12T02:03:40.214Z,0
2017-03-12T02:04:40.226Z,0
2017-03-12T02:05:40.237Z,0
2017-03-12T02:06:39.855Z,0
2017-03-12T02:07:40.260Z,0
2017-03-12T02:08:39.867Z,0
2017-03-12T02:09:40.320Z,0
2017-03-12T02:10:40.303Z,0
2017-03-12T02:11:40.310Z,0
2017-03-12T02:12:40.318Z,0
2017-03-12T02:13:39.932Z,0
2017-03-12T02:14:39.972Z,0
2017-03-12T02:15:40.029Z,0
2017-03-12T02:16:39.977Z,0
2017-03-12T02:17:39.995Z,0
2017-03-12T02:18:40.017Z,0
2017-03-12T02:19:40.019Z,0
2017-03-12T02:20:40.044Z,0
2017-03-12T02:21:40.059Z,0
2017-03-12T02:22:40.471Z,0
2017-03-12T02:23:40.679Z,0
2017-03-12T02:24:40.472Z,0
2017-03-12T02:25:40.495Z,0
2017-03-12T02:26:40.515Z,0
2017-03-12T02:27:40.129Z,0
2017-03-12T02:28:40.144Z,0
2017-03-12T02:29:40.552Z,0
2017-03-12T02:30:40.567Z,0
2017-03-12T02:31:40.571Z,0
2017-03-12T02:32:40.596Z,0
2017-03-12T02:33:40.918Z,0
2017-03-12T02:34:40.609Z,0
2017-03-12T02:35:40.271Z,0
2017-03-12T02:36:40.249Z,0
2017-03-12T02:37:40.660Z,0
2017-03-12T02:38:40.658Z,0
2017-03-12T02:39:40.700Z,0
2017-03-12T02:40:40.692Z,0
2017-03-12T02:41:40.886Z,0
2017-03-12T02:42:40.732Z,0
2017-03-12T02:43:40.746Z,0
2017-03-12T02:44:40.383Z,0
2017-03-12T02:45:40.760Z,0
2017-03-12T02:46:40.790Z,0
2017-03-12T02:47:40.776Z,0
2017-03-12T02:48:40.797Z,0
2017-03-12T02:49:40.030Z,0
2017-03-12T02:50:40.417Z,0
2017-03-12T02:51:40.460Z,0
2017-03-12T02:52:40.923Z,0
2017-03-12T02:53:40.906Z,0
2017-03-12T02:54:40.474Z,0
2017-03-12T02:55:40.872Z,0
2017-03-12T02:56:40.898Z,0
2017-03-12T02:57:40.921Z,0
2017-03-12T02:58:40.937Z,0
2017-03-12T02:59:40.558Z,0
2017-03-12T03:00:40.961Z,0
2017-03-12T03:01:41.005Z,0
2017-03-12T03:02:41.033Z,0
2017-03-12T03:03:41.002Z,0
2017-03-12T03:04:40.994Z,0
2017-03-12T03:05:40.620Z,0
2017-03-12T03:06:41.050Z,0
2017-03-12T03:07:41.043Z,0
2017-03-12T03:08:41.059Z,0
2017-03-12T03:09:40.713Z,0
2017-03-12T03:10:41.080Z,0
2017-03-12T03:11:41.090Z,0
2017-03-12T03:12:41.109Z,0
2017-03-12T03:13:41.185Z,0
2017-03-12T03:14:41.143Z,0
2017-03-12T03:15:41.150Z,0
2017-03-12T03:16:41.151Z,0
2017-03-12T03:17:41.173Z,0
2017-03-12T03:18:41.186Z,0
2017-03-12T03:19:41.188Z,0
2017-03-12T03:20:41.358Z,0
2017-03-12T03:21:41.234Z,0
2017-03-12T03:22:41.245Z,0
2017-03-12T03:23:40.862Z,0
2017-03-12T03:24:41.267Z,0
2017-03-12T03:25:40.873Z,0
2017-03-12T03:26:41.290Z,0
2017-03-12T03:27:41.295Z,0
2017-03-12T03:28:41.306Z,0
2017-03-12T03:29:41.318Z,0
2017-03-12T03:30:41.431Z,0
2017-03-12T03:31:41.352Z,0
2017-03-12T03:32:41.357Z,0
2017-03-12T03:33:40.988Z,0
2017-03-12T03:34:41.003Z,0
2017-03-12T03:35:41.412Z,0
2017-03-12T03:36:41.429Z,0
2017-03-12T03:37:41.430Z,0
2017-03-12T03:38:41.437Z,0
2017-03-12T03:39:41.465Z,0
2017-03-12T03:40:41.061Z,0
2017-03-12T03:41:41.517Z,0
2017-03-12T03:42:41.494Z,0
2017-03-12T03:43:41.510Z,0
2017-03-12T03:44:41.545Z,0
2017-03-12T03:45:41.663Z,0
2017-03-12T03:46:41.902Z,0
2017-03-12T03:47:41.565Z,0
2017-03-12T03:48:41.679Z,0
2017-03-12T03:49:41.713Z,0
2017-03-12T03:50:41.692Z,0
2017-03-12T03:51:40.802Z,0
2017-03-12T03:52:41.709Z,0
2017-03-12T03:53:41.639Z,0
2017-03-12T03:54:41.667Z,0
2017-03-12T03:55:41.264Z,0
2017-03-12T03:56:41.278Z,0
2017-03-12T03:57:41.686Z,0
2017-03-12T03:58:41.689Z,0
2017-03-12T03:59:41.913Z,0
2017-03-12T04:00:41.718Z,0
2017-03-12T04:01:41.753Z,0
2017-03-12T04:02:41.779Z,0
2017-03-12T04:03:41.766Z,0
2017-03-12T04:04:41.390Z,0
2017-03-12T04:05:41.784Z,0
2017-03-12T04:06:41.815Z,0
2017-03-12T04:07:41.006Z,0
2017-03-12T04:08:41.832Z,0
2017-03-12T04:09:41.823Z,0
2017-03-12T04:10:41.856Z,0
2017-03-12T04:11:41.870Z,0
2017-03-12T04:12:41.865Z,0
2017-03-12T04:13:41.888Z,0
2017-03-12T04:14:41.904Z,0
2017-03-12T04:15:41.919Z,0
2017-03-12T04:16:41.919Z,0
2017-03-12T04:17:41.935Z,0
2017-03-12T04:18:41.950Z,0
2017-03-12T04:19:41.162Z,0
2017-03-12T04:20:41.969Z,0
2017-03-12T04:21:41.993Z,0
2017-03-12T04:22:42.001Z,0
2017-03-12T04:23:41.620Z,0
2017-03-12T04:24:42.031Z,0
2017-03-12T04:25:41.666Z,0
2017-03-12T04:26:42.065Z,0
2017-03-12T04:27:42.158Z,0
2017-03-12T04:28:42.066Z,0
2017-03-12T04:29:42.082Z,0
2017-03-12T04:30:41.712Z,0
2017-03-12T04:31:42.101Z,0
2017-03-12T04:32:42.121Z,0
2017-03-12T04:33:42.169Z,0
2017-03-12T04:34:42.146Z,0
2017-03-12T04:35:42.163Z,0
2017-03-12T04:36:41.782Z,0
2017-03-12T04:37:42.385Z,0
2017-03-12T04:38:42.211Z,0
2017-03-12T04:39:42.208Z,0
2017-03-12T04:40:42.229Z,0
2017-03-12T04:41:41.847Z,0
2017-03-12T04:42:42.258Z,0
2017-03-12T04:43:42.262Z,0
2017-03-12T04:44:42.265Z,0
2017-03-12T04:45:42.296Z,0
2017-03-12T04:46:42.294Z,0
2017-03-12T04:47:42.314Z,0
2017-03-12T04:48:42.371Z,0
2017-03-12T04:49:42.334Z,0
2017-03-12T04:50:42.489Z,0
2017-03-12T04:51:42.494Z,0
2017-03-12T04:52:42.487Z,0
2017-03-12T04:53:42.512Z,0
2017-03-12T04:54:42.502Z,0
2017-03-12T04:55:42.510Z,0
2017-03-12T04:56:42.506Z,0
2017-03-12T04:57:42.535Z,0
2017-03-12T04:58:42.540Z,0
2017-03-12T04:59:42.561Z,0
2017-03-12T05:00:42.542Z,0
2017-03-12T05:01:42.551Z,0
2017-03-12T05:02:42.593Z,0
2017-03-12T05:03:42.540Z,0
2017-03-12T05:04:42.550Z,0
2017-03-12T05:05:42.556Z,0
2017-03-12T05:06:42.149Z,0
2017-03-12T05:07:42.677Z,0
2017-03-12T05:08:42.563Z,0
2017-03-12T05:09:42.800Z,0
2017-03-12T05:10:42.585Z,0
2017-03-12T05:11:42.716Z,0
2017-03-12T05:12:42.637Z,4
2017-03-12T05:13:42.636Z,4
2017-03-12T05:14:42.656Z,0
2017-03-12T05:15:42.664Z,4
2017-03-12T05:16:42.660Z,4
2017-03-12T05:17:42.686Z,0
2017-03-12T05:18:42.313Z,4
2017-03-12T05:19:42.710Z,4
2017-03-12T05:20:42.716Z,4
2017-03-12T05:21:42.757Z,8
2017-03-12T05:22:42.734Z,8
2017-03-12T05:23:42.845Z,8
2017-03-12T05:24:42.790Z,8
2017-03-12T05:25:42.792Z,8
2017-03-12T05:26:42.782Z,12
2017-03-12T05:27:42.810Z,12
2017-03-12T05:28:42.918Z,16
2017-03-12T05:29:42.821Z,20
2017-03-12T05:30:42.861Z,20
2017-03-12T05:31:42.454Z,24
2017-03-12T05:32:42.886Z,24
2017-03-12T05:33:42.882Z,28
2017-03-12T05:34:57.417Z,32
2017-03-12T05:35:42.496Z,32
2017-03-12T05:36:42.520Z,32
2017-03-12T05:37:42.558Z,36
2017-03-12T05:38:42.943Z,40
2017-03-12T05:39:42.570Z,44
2017-03-12T05:40:43.061Z,44
2017-03-12T05:41:42.583Z,48
2017-03-12T05:42:42.601Z,52
2017-03-12T05:43:43.008Z,56
2017-03-12T05:44:43.035Z,60
2017-03-12T05:45:43.071Z,64
2017-03-12T05:46:43.054Z,68
2017-03-12T05:47:42.667Z,68
2017-03-12T05:48:43.067Z,72
2017-03-12T05:49:43.094Z,76
2017-03-12T05:50:43.087Z,80
2017-03-12T05:51:43.111Z,84
2017-03-12T05:52:42.728Z,88
2017-03-12T05:53:43.118Z,92
2017-03-12T05:54:43.183Z,92
2017-03-12T05:55:42.785Z,96
2017-03-12T05:56:43.159Z,100
2017-03-12T05:57:43.183Z,104
2017-03-12T05:58:43.197Z,108
2017-03-12T05:59:43.192Z,112
2017-03-12T06:00:43.232Z,116
2017-03-12T06:01:43.213Z,116
2017-03-12T06:02:43.250Z,120
2017-03-12T06:03:43.237Z,124
2017-03-12T06:04:43.249Z,132
2017-03-12T06:05:43.281Z,136
2017-03-12T06:06:43.287Z,132
2017-03-12T06:07:42.914Z,144
2017-03-12T06:08:43.299Z,144
2017-03-12T06:09:43.307Z,148
2017-03-12T06:10:43.330Z,156
2017-03-12T06:11:43.379Z,164
2017-03-12T06:12:43.352Z,172
2017-03-12T06:13:43.386Z,172
2017-03-12T06:14:42.974Z,168
2017-03-12T06:15:43.028Z,200
2017-03-12T06:16:43.422Z,180
2017-03-12T06:17:43.419Z,200
2017-03-12T06:18:43.526Z,192
2017-03-12T06:19:43.525Z,200
2017-03-12T06:20:43.681Z,208
2017-03-12T06:21:43.692Z,208
2017-03-12T06:22:43.697Z,220
2017-03-12T06:23:43.299Z,224
2017-03-12T06:24:43.687Z,220
2017-03-12T06:25:43.721Z,228
2017-03-12T06:26:43.735Z,236
2017-03-12T06:27:43.604Z,220
2017-03-12T06:28:43.731Z,260
2017-03-12T06:29:43.554Z,268
2017-03-12T06:30:43.567Z,232
2017-03-12T06:31:43.596Z,272
2017-03-12T06:32:43.620Z,256
2017-03-12T06:33:43.603Z,232
2017-03-12T06:34:43.616Z,264
2017-03-12T06:35:43.240Z,272
2017-03-12T06:36:43.640Z,244
2017-03-12T06:37:43.644Z,332
2017-03-12T06:38:43.678Z,296
2017-03-12T06:39:43.687Z,324
2017-03-12T06:40:43.346Z,268
2017-03-12T06:41:43.348Z,300
2017-03-12T06:42:43.706Z,308
2017-03-12T06:43:43.737Z,324
2017-03-12T06:44:43.752Z,328
2017-03-12T06:45:43.375Z,360
2017-03-12T06:46:43.759Z,320
2017-03-12T06:47:43.779Z,364
2017-03-12T06:48:43.802Z,348
2017-03-12T06:49:43.811Z,376
2017-03-12T06:50:43.807Z,424
2017-03-12T06:51:43.837Z,392
2017-03-12T06:52:43.838Z,368
2017-03-12T06:53:43.851Z,432
2017-03-12T06:54:44.034Z,444
2017-03-12T06:55:43.887Z,396
2017-03-12T06:56:43.879Z,416
2017-03-12T06:57:43.903Z,512
2017-03-12T06:58:43.943Z,432
2017-03-12T06:59:43.908Z,492
2017-03-12T07:00:43.938Z,604
2017-03-12T07:01:44.016Z,500
2017-03-12T07:02:43.956Z,488
2017-03-12T07:03:43.979Z,520
2017-03-12T07:04:43.613Z,588
2017-03-12T07:05:43.992Z,552
2017-03-12T07:06:44.032Z,484
2017-03-12T07:07:44.037Z,524
2017-03-12T07:08:44.056Z,568
2017-03-12T07:09:43.653Z,540
2017-03-12T07:10:44.042Z,656
2017-03-12T07:11:43.689Z,532
2017-03-12T07:12:44.125Z,652
2017-03-12T07:13:44.098Z,672
2017-03-12T07:14:44.149Z,572
2017-03-12T07:15:44.238Z,564
2017-03-12T07:16:43.813Z,692
2017-03-12T07:17:44.226Z,516
2017-03-12T07:18:44.231Z,728
2017-03-12T07:19:44.288Z,632
2017-03-12T07:20:43.889Z,820
2017-03-12T07:21:44.261Z,732
2017-03-12T07:22:43.405Z,784
2017-03-12T07:23:44.311Z,816
2017-03-12T07:24:44.357Z,712
2017-03-12T07:25:44.252Z,800
2017-03-12T07:26:44.393Z,892
2017-03-12T07:27:44.275Z,652
2017-03-12T07:28:44.276Z,820
2017-03-12T07:29:44.332Z,868
2017-03-12T07:30:44.293Z,736
2017-03-12T07:31:44.312Z,800
2017-03-12T07:32:44.331Z,1032
2017-03-12T07:33:44.346Z,660
2017-03-12T07:34:44.364Z,792
2017-03-12T07:35:44.111Z,788
2017-03-12T07:36:44.395Z,660
2017-03-12T07:37:44.393Z,740
2017-03-12T07:38:44.407Z,900
2017-03-12T07:39:44.417Z,840
2017-03-12T07:40:44.621Z,776
2017-03-12T07:41:44.429Z,944
2017-03-12T07:42:44.447Z,612
2017-03-12T07:43:44.463Z,904
2017-03-12T07:44:44.469Z,856
2017-03-12T07:45:44.220Z,600
2017-03-12T07:46:44.217Z,776
2017-03-12T07:47:44.225Z,912
2017-03-12T07:48:44.530Z,808
2017-03-12T07:49:44.544Z,596
2017-03-12T07:50:45.232Z,832
2017-03-12T07:51:44.566Z,876
2017-03-12T07:52:44.579Z,816
2017-03-12T07:53:44.583Z,972
2017-03-12T07:54:44.244Z,736
2017-03-12T07:55:44.605Z,520
2017-03-12T07:56:44.617Z,524
2017-03-12T07:57:44.630Z,468
2017-03-12T07:58:44.647Z,448
2017-03-12T07:59:44.664Z,440
2017-03-12T08:00:44.681Z,444
2017-03-12T08:01:44.686Z,524
2017-03-12T08:02:44.717Z,440
2017-03-12T08:03:44.340Z,444
2017-03-12T08:04:44.730Z,412
2017-03-12T08:05:44.369Z,448
2017-03-12T08:06:44.347Z,428
2017-03-12T08:07:44.760Z,432
2017-03-12T08:08:44.390Z,500
2017-03-12T08:09:44.791Z,852
2017-03-12T08:10:44.801Z,420
2017-03-12T08:11:44.807Z,432
2017-03-12T08:12:44.421Z,412
2017-03-12T08:13:44.830Z,420
2017-03-12T08:14:44.858Z,432
2017-03-12T08:15:44.866Z,416
2017-03-12T08:16:44.499Z,488
2017-03-12T08:17:44.892Z,416
2017-03-12T08:18:44.901Z,392
2017-03-12T08:19:44.520Z,404
2017-03-12T08:20:44.920Z,404
2017-03-12T08:21:44.955Z,404
2017-03-12T08:22:44.954Z,400
2017-03-12T08:23:44.995Z,400
2017-03-12T08:24:44.968Z,404
2017-03-12T08:25:44.987Z,408
2017-03-12T08:26:44.996Z,392
2017-03-12T08:27:45.016Z,404
2017-03-12T08:28:44.642Z,416
2017-03-12T08:29:45.051Z,412
2017-03-12T08:30:45.054Z,404
2017-03-12T08:31:45.063Z,412
2017-03-12T08:32:45.078Z,416
2017-03-12T08:33:45.083Z,432
2017-03-12T08:34:45.111Z,436
2017-03-12T08:35:45.121Z,460
2017-03-12T08:36:45.128Z,488
2017-03-12T08:37:45.153Z,504
2017-03-12T08:38:45.157Z,500
2017-03-12T08:39:45.160Z,488
2017-03-12T08:40:45.179Z,488
2017-03-12T08:41:45.233Z,516
2017-03-12T08:42:45.202Z,540
2017-03-12T08:43:45.331Z,536
2017-03-12T08:44:45.354Z,528
2017-03-12T08:45:45.451Z,544
2017-03-12T08:46:45.372Z,592
2017-03-12T08:47:45.524Z,624
2017-03-12T08:48:45.464Z,632
2017-03-12T08:49:45.303Z,632
2017-03-12T08:50:45.386Z,640
2017-03-12T08:51:45.311Z,644
2017-03-12T08:52:45.336Z,628
2017-03-12T08:53:45.363Z,628
2017-03-12T08:54:45.363Z,684
2017-03-12T08:55:45.372Z,756
2017-03-12T08:56:45.418Z,740
2017-03-12T08:57:45.447Z,672
2017-03-12T08:58:45.403Z,656
2017-03-12T08:59:45.436Z,704
2017-03-12T09:00:45.449Z,792
2017-03-12T09:01:45.472Z,868
2017-03-12T09:02:45.480Z,928
2017-03-12T09:03:45.468Z,956
2017-03-12T09:04:45.532Z,940
2017-03-12T09:05:45.494Z,900
2017-03-12T09:06:45.521Z,864
2017-03-12T09:07:45.529Z,824
2017-03-12T09:08:45.170Z,796
2017-03-12T09:09:45.555Z,776
2017-03-12T09:10:45.184Z,748
2017-03-12T09:11:45.198Z,756
2017-03-12T09:12:45.589Z,748
2017-03-12T09:13:45.614Z,744
2017-03-12T09:14:45.629Z,780
2017-03-12T09:15:45.627Z,848
2017-03-12T09:16:45.666Z,940
2017-03-12T09:17:45.674Z,968
2017-03-12T09:18:45.696Z,940
2017-03-12T09:19:45.334Z,860
2017-03-12T09:20:45.704Z,836
2017-03-12T09:21:45.720Z,940
2017-03-12T09:22:45.741Z,1120
2017-03-12T09:23:45.772Z,1188
2017-03-12T09:24:45.774Z,1200
2017-03-12T09:25:45.797Z,1140
2017-03-12T09:26:45.804Z,1056
2017-03-12T09:27:45.798Z,904
2017-03-12T09:28:45.823Z,756
2017-03-12T09:29:45.835Z,660
2017-03-12T09:30:45.851Z,616
2017-03-12T09:31:45.866Z,576
2017-03-12T09:32:45.493Z,536
2017-03-12T09:33:45.888Z,544
2017-03-12T09:34:45.923Z,608
2017-03-12T09:35:45.932Z,660
2017-03-12T09:36:45.545Z,664
2017-03-12T09:37:45.965Z,620
2017-03-12T09:38:45.958Z,548
2017-03-12T09:39:45.971Z,544
2017-03-12T09:40:46.000Z,572
2017-03-12T09:41:46.001Z,592
2017-03-12T09:42:46.053Z,556
2017-03-12T09:43:45.647Z,516
2017-03-12T09:44:46.051Z,504
2017-03-12T09:46:00.570Z,520
2017-03-12T09:46:46.089Z,564
2017-03-12T09:47:46.105Z,520
2017-03-12T09:48:46.125Z,536
2017-03-12T09:49:46.129Z,604
2017-03-12T09:50:46.156Z,588
2017-03-12T09:51:46.164Z,636
2017-03-12T09:52:46.173Z,720
2017-03-12T09:53:46.197Z,824
2017-03-12T09:54:46.193Z,856
2017-03-12T09:55:47.519Z,828
2017-03-12T09:56:46.329Z,796
2017-03-12T09:57:46.338Z,808
2017-03-12T09:58:46.333Z,768
2017-03-12T09:59:46.344Z,784
2017-03-12T10:00:46.351Z,784
2017-03-12T10:01:46.360Z,868
2017-03-12T10:02:46.552Z,788
2017-03-12T10:03:46.628Z,716
2017-03-12T10:04:46.378Z,736
2017-03-12T10:05:46.390Z,784
2017-03-12T10:06:46.395Z,684
2017-03-12T10:07:46.401Z,680
2017-03-12T10:08:46.461Z,664
2017-03-12T10:09:46.471Z,708
2017-03-12T10:10:46.479Z,812
2017-03-12T10:11:46.488Z,868
2017-03-12T10:12:46.488Z,792
2017-03-12T10:13:46.496Z,760
2017-03-12T10:14:46.503Z,780
2017-03-12T10:15:46.512Z,704
2017-03-12T10:16:46.590Z,696
2017-03-12T10:17:46.590Z,768
2017-03-12T10:18:46.662Z,820
2017-03-12T10:19:46.666Z,1020
2017-03-12T10:20:46.817Z,1280
2017-03-12T10:21:46.826Z,1456
2017-03-12T10:22:46.431Z,1460
2017-03-12T10:23:46.843Z,1444
2017-03-12T10:24:46.987Z,1436
2017-03-12T10:25:46.859Z,1300
2017-03-12T10:26:46.867Z,1084
2017-03-12T10:27:46.432Z,896
2017-03-12T10:28:46.839Z,784
2017-03-12T10:29:46.853Z,740
2017-03-12T10:30:46.873Z,820
2017-03-12T10:31:46.883Z,776
2017-03-12T10:32:46.951Z,840
2017-03-12T10:33:46.959Z,1056
2017-03-12T10:34:46.971Z,1176
2017-03-12T10:35:46.966Z,1172
2017-03-12T10:36:46.975Z,1088
2017-03-12T10:37:46.986Z,1068
2017-03-12T10:38:46.993Z,1108
2017-03-12T10:39:47.002Z,1124
2017-03-12T10:40:47.001Z,948
2017-03-12T10:41:47.009Z,808
2017-03-12T10:42:47.019Z,812
2017-03-12T10:43:47.028Z,872
2017-03-12T10:44:47.036Z,844
2017-03-12T10:45:46.999Z,892
2017-03-12T10:46:47.010Z,1032
2017-03-12T10:47:47.029Z,1128
2017-03-12T10:48:47.045Z,1384
2017-03-12T10:49:46.819Z,1420
2017-03-12T10:50:46.827Z,1492
2017-03-12T10:51:47.088Z,1564
2017-03-12T10:52:47.189Z,1544
2017-03-12T10:53:47.148Z,1348
2017-03-12T10:54:47.138Z,1264
2017-03-12T10:55:47.148Z,1344
2017-03-12T10:56:47.155Z,1452
2017-03-12T10:57:47.187Z,1532
2017-03-12T10:58:46.933Z,1640
2017-03-12T10:59:47.216Z,1700
2017-03-12T11:00:47.242Z,1856
2017-03-12T11:01:47.264Z,1740
2017-03-12T11:02:47.277Z,1600
2017-03-12T11:03:46.962Z,1416
2017-03-12T11:04:47.310Z,1308
2017-03-12T11:05:47.307Z,1292
2017-03-12T11:06:47.333Z,1308
2017-03-12T11:07:47.352Z,1320
2017-03-12T11:08:47.381Z,1240
2017-03-12T11:09:47.390Z,1236
2017-03-12T11:10:47.422Z,1360
2017-03-12T11:11:47.018Z,1444
2017-03-12T11:12:47.431Z,1484
2017-03-12T11:13:47.453Z,1140
2017-03-12T11:14:47.465Z,1048
2017-03-12T11:15:47.487Z,1124
2017-03-12T11:16:47.493Z,1024
2017-03-12T11:17:47.522Z,1024
2017-03-12T11:18:47.537Z,1000
2017-03-12T11:19:47.546Z,924
2017-03-12T11:20:47.170Z,992
2017-03-12T11:21:47.581Z,1204
2017-03-12T11:22:46.993Z,1204
2017-03-12T11:23:47.612Z,1080
2017-03-12T11:24:47.635Z,1540
2017-03-12T11:25:47.701Z,1660
2017-03-12T11:26:47.670Z,1660
2017-03-12T11:27:47.694Z,1664
2017-03-12T11:28:47.719Z,1620
2017-03-12T11:29:47.720Z,1660
2017-03-12T11:30:47.736Z,1784
2017-03-12T11:31:47.764Z,1792
2017-03-12T11:32:47.774Z,1692
2017-03-12T11:33:47.409Z,1692
2017-03-12T11:34:47.827Z,1780
2017-03-12T11:35:47.837Z,1840
2017-03-12T11:36:47.851Z,1564
2017-03-12T11:37:47.873Z,1496
2017-03-12T11:38:47.877Z,1460
2017-03-12T11:39:47.502Z,1352
2017-03-12T11:40:48.122Z,1448
2017-03-12T11:41:47.937Z,1492
2017-03-12T11:42:47.970Z,1724
2017-03-12T11:43:47.967Z,1892
2017-03-12T11:44:47.987Z,2024
2017-03-12T11:45:48.023Z,1984
2017-03-12T11:46:48.017Z,1860
2017-03-12T11:47:48.030Z,1776
2017-03-12T11:48:48.078Z,1556
2017-03-12T11:49:48.093Z,1244
2017-03-12T11:50:47.698Z,1068
2017-03-12T11:51:47.709Z,1032
2017-03-12T11:52:47.725Z,1076
2017-03-12T11:53:47.748Z,1200
2017-03-12T11:54:48.195Z,1312
2017-03-12T11:55:47.800Z,1468
2017-03-12T11:56:47.795Z,1720
2017-03-12T11:57:48.215Z,2020
2017-03-12T11:58:48.251Z,2104
2017-03-12T11:59:48.261Z,2060
2017-03-12T12:00:47.870Z,1804
2017-03-12T12:01:48.297Z,1460
2017-03-12T12:02:48.328Z,1212
2017-03-12T12:03:48.350Z,1000
2017-03-12T12:04:48.340Z,904
2017-03-12T12:05:48.358Z,808
2017-03-12T12:06:48.381Z,788
2017-03-12T12:07:48.407Z,872
2017-03-12T12:08:48.731Z,944
2017-03-12T12:09:48.440Z,1000
2017-03-12T12:10:48.463Z,1148
2017-03-12T12:11:48.498Z,1280
2017-03-12T12:12:48.499Z,1492
2017-03-12T12:13:48.510Z,1544
2017-03-12T12:14:48.530Z,1464
2017-03-12T12:15:48.544Z,1332
2017-03-12T12:16:48.169Z,1340
2017-03-12T12:17:48.622Z,1340
2017-03-12T12:18:48.732Z,1476
2017-03-12T12:19:48.707Z,1512
2017-03-12T12:20:48.712Z,1652
2017-03-12T12:21:48.710Z,1616
2017-03-12T12:22:48.753Z,1592
2017-03-12T12:23:48.722Z,1564
2017-03-12T12:24:48.745Z,1420
2017-03-12T12:25:48.759Z,1296
2017-03-12T12:26:48.878Z,1308
2017-03-12T12:27:48.766Z,1368
2017-03-12T12:28:48.907Z,1480
2017-03-12T12:29:48.920Z,1436
2017-03-12T12:30:48.921Z,1436
2017-03-12T12:31:48.853Z,1476
2017-03-12T12:32:48.961Z,1572
2017-03-12T12:33:48.864Z,1564
2017-03-12T12:34:48.980Z,1428
2017-03-12T12:35:48.999Z,1332
2017-03-12T12:36:49.043Z,1288
2017-03-12T12:37:49.060Z,1200
2017-03-12T12:38:49.061Z,1208
2017-03-12T12:39:49.076Z,1152
2017-03-12T12:40:49.091Z,1260
2017-03-12T12:41:49.111Z,1340
2017-03-12T12:42:49.275Z,1340
2017-03-12T12:43:49.203Z,1440
2017-03-12T12:44:49.210Z,1616
2017-03-12T12:45:49.208Z,1748
2017-03-12T12:46:49.224Z,1852
2017-03-12T12:47:49.235Z,1896
2017-03-12T12:48:49.374Z,1892
2017-03-12T12:49:49.379Z,1948
2017-03-12T12:50:48.980Z,2192
2017-03-12T12:51:49.390Z,2252
2017-03-12T12:52:49.397Z,2080
2017-03-12T12:53:49.384Z,1964
2017-03-12T12:54:49.385Z,1936
2017-03-12T12:55:49.390Z,1824
2017-03-12T12:56:49.408Z,1600
2017-03-12T12:57:50.602Z,1532
2017-03-12T12:58:49.410Z,1512
2017-03-12T12:59:49.393Z,1672
2017-03-12T13:00:49.423Z,1560
2017-03-12T13:01:49.399Z,1400
2017-03-12T13:02:49.417Z,1408
2017-03-12T13:03:49.428Z,1388
2017-03-12T13:04:49.458Z,1416
2017-03-12T13:05:49.481Z,1512
2017-03-12T13:06:49.500Z,1560
2017-03-12T13:07:49.516Z,1520
2017-03-12T13:08:49.539Z,1472
2017-03-12T13:09:49.247Z,1468
2017-03-12T13:10:49.610Z,1752
2017-03-12T13:11:49.582Z,2264
2017-03-12T13:12:49.619Z,2144
2017-03-12T13:13:49.317Z,2032
2017-03-12T13:14:49.650Z,1852
2017-03-12T13:15:49.658Z,1832
2017-03-12T13:16:49.717Z,1944
2017-03-12T13:17:49.701Z,1760
2017-03-12T13:18:49.710Z,1700
2017-03-12T13:19:49.733Z,1532
2017-03-12T13:20:49.773Z,1392
2017-03-12T13:21:49.794Z,1424
2017-03-12T13:22:49.796Z,1436
2017-03-12T13:23:49.865Z,1496
2017-03-12T13:24:49.839Z,1584
2017-03-12T13:25:49.871Z,1788
2017-03-12T13:26:49.898Z,1796
2017-03-12T13:27:49.899Z,1660
2017-03-12T13:28:49.917Z,1508
2017-03-12T13:29:49.917Z,1324
2017-03-12T13:30:49.544Z,1180
2017-03-12T13:31:49.978Z,1124
2017-03-12T13:32:50.003Z,1144
2017-03-12T13:33:50.005Z,1164
2017-03-12T13:34:50.027Z,1140
2017-03-12T13:35:50.034Z,1096
2017-03-12T13:36:50.091Z,1068
2017-03-12T13:37:50.081Z,1072
2017-03-12T13:38:50.090Z,1072
2017-03-12T13:39:50.115Z,1128
2017-03-12T13:40:49.742Z,1404
2017-03-12T13:41:50.169Z,1204
2017-03-12T13:42:50.184Z,1300
2017-03-12T13:43:50.201Z,1468
2017-03-12T13:44:50.227Z,1580
2017-03-12T13:45:50.231Z,1816
2017-03-12T13:46:50.250Z,1964
2017-03-12T13:47:50.291Z,1888
2017-03-12T13:48:50.288Z,1828
2017-03-12T13:49:50.315Z,1604
2017-03-12T13:50:50.324Z,1640
2017-03-12T13:51:50.348Z,1616
2017-03-12T13:52:50.368Z,1736
2017-03-12T13:53:50.373Z,1272
2017-03-12T13:54:50.405Z,1084
2017-03-12T13:55:50.027Z,1004
2017-03-12T13:56:50.438Z,1016
2017-03-12T13:57:50.454Z,1076
2017-03-12T13:58:50.466Z,1076
2017-03-12T13:59:50.498Z,1100
2017-03-12T14:00:50.522Z,1292
2017-03-12T14:01:50.546Z,1496
2017-03-12T14:02:50.561Z,1712